Time;durP1;ratioP1;P1;durP2;ratioP2;P2;SDS_P1;SDS_P2;PMS_P1;PMS_P2;Temp;Humidity;BMP_temperature;BMP_pressure;BME280_temperature;BME280_humidity;BME280_pressure;Samples;Min_cycle;Max_cycle;Signal;HPM_P1;HPM_P2
2021/01/07 00:01:34;;;;;;;59.30;30.63;;;3.90;90.80;;;;;;5072945;28;20024;-84
2021/01/07 00:04:00;;;;;;;72.88;35.60;;;3.90;90.60;;;;;;5071195;28;20442;-84
2021/01/07 00:06:26;;;;;;;67.30;30.35;;;3.80;90.60;;;;;;5070972;28;20425;-84
2021/01/07 00:08:52;;;;;;;56.83;26.85;;;3.80;90.70;;;;;;5070792;28;20466;-83
2021/01/07 00:11:18;;;;;;;58.05;27.10;;;3.80;90.70;;;;;;5072684;28;20029;-83
2021/01/07 00:13:44;;;;;;;61.08;26.40;;;3.90;90.70;;;;;;5073445;28;20028;-83
2021/01/07 00:16:09;;;;;;;40.38;20.88;;;3.90;90.70;;;;;;5072459;28;20028;-83
2021/01/07 00:18:35;;;;;;;37.55;19.40;;;3.90;90.70;;;;;;5071985;28;20405;-83
2021/01/07 00:21:01;;;;;;;32.20;19.05;;;3.90;90.60;;;;;;5072100;28;20063;-82
2021/01/07 00:23:27;;;;;;;30.05;18.60;;;3.90;90.60;;;;;;5071372;28;20454;-82
2021/01/07 00:25:55;;;;;;;25.88;17.08;;;3.90;90.60;;;;;;5071893;28;20103;-83
2021/01/07 00:28:22;;;;;;;37.50;22.05;;;3.90;90.60;;;;;;5072170;28;20056;-83
2021/01/07 00:30:48;;;;;;;33.05;20.27;;;3.90;90.60;;;;;;5087385;28;20107;-83
2021/01/07 00:33:16;;;;;;;27.42;18.45;;;3.90;90.60;;;;;;5092196;28;20032;-83
2021/01/07 00:35:42;;;;;;;25.30;16.80;;;3.90;90.70;;;;;;5092186;28;20032;-83
2021/01/07 00:38:08;;;;;;;22.65;14.35;;;3.90;90.80;;;;;;5093615;28;20489;-83
2021/01/07 00:40:34;;;;;;;24.63;14.93;;;3.90;90.70;;;;;;5093199;28;20074;-83
2021/01/07 00:43:00;;;;;;;24.27;14.80;;;3.90;90.70;;;;;;5092132;28;20052;-83
2021/01/07 00:45:27;;;;;;;28.40;17.48;;;3.90;90.80;;;;;;5092024;28;20024;-84
2021/01/07 00:47:53;;;;;;;23.77;12.65;;;3.80;90.90;;;;;;5092145;28;20028;-86
2021/01/07 00:50:19;;;;;;;25.23;14.93;;;3.90;90.80;;;;;;5092416;28;20077;-84
2021/01/07 00:52:44;;;;;;;24.05;14.52;;;3.90;90.80;;;;;;5092328;28;20040;-84
2021/01/07 00:55:11;;;;;;;26.25;14.85;;;3.90;90.80;;;;;;5093533;28;20364;-84
2021/01/07 00:57:37;;;;;;;22.23;12.05;;;3.90;90.80;;;;;;5093760;28;20031;-86
2021/01/07 01:00:09;;;;;;;26.13;15.45;;;4.00;90.70;;;;;;5092746;28;20376;-84
2021/01/07 01:02:35;;;;;;;23.42;14.23;;;3.90;90.70;;;;;;5092206;28;20028;-83
2021/01/07 01:05:01;;;;;;;27.75;16.52;;;3.90;90.80;;;;;;5093896;28;20027;-84
2021/01/07 01:07:27;;;;;;;27.00;15.35;;;3.90;90.90;;;;;;5092210;28;20144;-83
2021/01/07 01:09:53;;;;;;;35.50;19.42;;;3.80;91.00;;;;;;5092229;28;20037;-84
2021/01/07 01:12:19;;;;;;;31.20;16.92;;;3.80;91.00;;;;;;5092473;28;20427;-84
2021/01/07 01:14:45;;;;;;;32.22;18.50;;;3.80;91.00;;;;;;5092494;28;20024;-84
2021/01/07 01:17:11;;;;;;;33.35;19.75;;;3.80;91.00;;;;;;5092067;28;20024;-83
2021/01/07 01:19:37;;;;;;;29.80;17.80;;;3.80;91.00;;;;;;5092369;28;20024;-84
2021/01/07 01:22:03;;;;;;;27.70;16.10;;;3.90;91.00;;;;;;5091413;28;20025;-84
2021/01/07 01:24:28;;;;;;;26.35;16.45;;;3.90;91.00;;;;;;5091437;28;20062;-84
2021/01/07 01:26:55;;;;;;;26.52;16.05;;;3.90;91.00;;;;;;5091021;28;20148;-84
2021/01/07 01:29:21;;;;;;;27.50;17.08;;;3.90;91.00;;;;;;5084932;28;20107;-84
2021/01/07 01:31:47;;;;;;;25.85;15.30;;;3.80;91.10;;;;;;5071917;28;20105;-84
2021/01/07 01:34:15;;;;;;;28.38;15.88;;;3.80;91.00;;;;;;5074267;28;20840;-84
2021/01/07 01:36:40;;;;;;;28.35;16.48;;;3.80;91.00;;;;;;5077049;28;20027;-84
2021/01/07 01:39:06;;;;;;;26.80;16.73;;;3.80;91.10;;;;;;5077166;28;20024;-84
2021/01/07 01:41:39;;;;;;;27.23;14.77;;;3.70;91.10;;;;;;5075890;28;20078;-83
2021/01/07 01:44:07;;;;;;;20.95;12.82;;;3.80;91.10;;;;;;5075839;28;20027;-83
2021/01/07 01:46:33;;;;;;;19.50;12.10;;;3.80;91.00;;;;;;5076468;28;20086;-83
2021/01/07 01:49:00;;;;;;;27.83;16.10;;;3.90;91.00;;;;;;5075268;28;20024;-83
2021/01/07 01:51:27;;;;;;;30.30;17.15;;;3.80;90.90;;;;;;5075118;28;20056;-83
2021/01/07 01:53:53;;;;;;;23.65;13.80;;;3.80;91.10;;;;;;5076236;28;20020;-82
2021/01/07 01:56:19;;;;;;;26.38;17.15;;;3.80;91.00;;;;;;5074364;28;20379;-82
2021/01/07 01:58:46;;;;;;;30.08;17.38;;;3.80;91.00;;;;;;5074466;28;20055;-83
2021/01/07 02:01:11;;;;;;;28.75;17.48;;;3.80;91.10;;;;;;5074971;28;20024;-82
2021/01/07 02:03:41;;;;;;;28.92;15.88;;;3.70;91.20;;;;;;5075089;28;20112;-83
2021/01/07 02:06:11;;;;;;;32.13;18.23;;;3.80;91.10;;;;;;5074786;28;20032;-82
2021/01/07 02:08:39;;;;;;;28.00;16.42;;;3.70;91.20;;;;;;5080373;28;20046;-83
2021/01/07 02:11:05;;;;;;;27.88;15.60;;;3.70;91.20;;;;;;5094791;28;20032;-82
2021/01/07 02:13:30;;;;;;;23.90;14.57;;;3.70;91.10;;;;;;5095054;28;20024;-83
2021/01/07 02:15:57;;;;;;;24.27;14.30;;;3.80;91.00;;;;;;5094700;28;20533;-83
2021/01/07 02:18:23;;;;;;;27.88;15.27;;;3.80;91.00;;;;;;5095741;28;20020;-82
2021/01/07 02:20:48;;;;;;;29.70;15.82;;;3.80;91.00;;;;;;5094584;28;20072;-83
2021/01/07 02:23:14;;;;;;;27.75;15.40;;;3.80;91.00;;;;;;5094448;28;20028;-83
2021/01/07 02:25:40;;;;;;;25.80;15.40;;;3.80;91.00;;;;;;5094732;28;20110;-81
2021/01/07 02:28:07;;;;;;;32.35;17.50;;;3.70;91.00;;;;;;5094227;28;20044;-83
2021/01/07 02:30:33;;;;;;;36.25;17.42;;;3.70;91.10;;;;;;5094699;28;20036;-82
2021/01/07 02:32:59;;;;;;;31.10;16.48;;;3.70;91.20;;;;;;5094691;28;20020;-83
2021/01/07 02:35:25;;;;;;;35.60;18.98;;;3.70;91.10;;;;;;5094593;28;20500;-82
2021/01/07 02:37:51;;;;;;;34.97;17.80;;;3.70;91.20;;;;;;5094709;28;20754;-82
2021/01/07 02:40:17;;;;;;;32.08;16.55;;;3.60;91.20;;;;;;5094932;28;20030;-83
2021/01/07 02:42:42;;;;;;;28.75;15.05;;;3.60;91.20;;;;;;5094606;28;20078;-85
2021/01/07 02:45:09;;;;;;;32.00;17.02;;;3.60;91.10;;;;;;5094083;28;20534;-83
2021/01/07 02:47:36;;;;;;;37.35;17.95;;;3.60;91.10;;;;;;5093541;28;20051;-83
2021/01/07 02:50:04;;;;;;;32.55;16.20;;;3.60;91.10;;;;;;5074638;28;20060;-83
2021/01/07 02:52:30;;;;;;;31.25;16.38;;;3.70;91.00;;;;;;5074630;28;20509;-82
2021/01/07 02:54:55;;;;;;;28.42;15.07;;;3.60;91.10;;;;;;5074489;28;20060;-82
2021/01/07 02:57:21;;;;;;;28.75;15.15;;;3.70;91.10;;;;;;5074293;28;20139;-82
2021/01/07 02:59:47;;;;;;;30.33;15.65;;;3.60;91.20;;;;;;5074723;28;20074;-82
2021/01/07 03:02:13;;;;;;;32.17;16.58;;;3.60;91.10;;;;;;5074420;28;20032;-82
2021/01/07 03:04:38;;;;;;;33.35;17.13;;;3.60;91.10;;;;;;5074273;28;20107;-83
2021/01/07 03:07:04;;;;;;;34.15;16.08;;;3.60;91.20;;;;;;5075543;28;20029;-83
2021/01/07 03:09:30;;;;;;;33.47;17.42;;;3.60;91.20;;;;;;5074377;28;20031;-83
2021/01/07 03:11:55;;;;;;;28.17;14.18;;;3.50;91.40;;;;;;5074200;28;20028;-82
2021/01/07 03:14:21;;;;;;;33.13;16.17;;;3.50;91.20;;;;;;5075307;28;20100;-83
2021/01/07 03:16:47;;;;;;;30.77;14.57;;;3.50;91.30;;;;;;5074066;28;20115;-83
2021/01/07 03:19:13;;;;;;;27.92;14.32;;;3.50;91.30;;;;;;5075373;28;20024;-83
2021/01/07 03:21:41;;;;;;;27.80;15.45;;;3.60;91.30;;;;;;5073864;28;20174;-83
2021/01/07 03:24:10;;;;;;;29.95;13.82;;;3.60;91.30;;;;;;5073958;28;20120;-82
2021/01/07 03:26:36;;;;;;;24.48;12.02;;;3.60;91.20;;;;;;5073975;28;20052;-83
2021/01/07 03:29:03;;;;;;;22.85;12.45;;;3.60;91.20;;;;;;5090569;28;20446;-83
2021/01/07 03:31:30;;;;;;;26.25;13.27;;;3.70;91.10;;;;;;5082572;28;20028;-83
2021/01/07 03:33:55;;;;;;;23.65;12.77;;;3.70;91.10;;;;;;5074643;28;20028;-83
2021/01/07 03:36:21;;;;;;;24.60;13.90;;;3.60;91.00;;;;;;5084453;28;20156;-83
2021/01/07 03:38:47;;;;;;;28.40;15.65;;;3.70;91.00;;;;;;5093780;28;20029;-82
2021/01/07 03:41:12;;;;;;;26.55;14.18;;;3.50;91.00;;;;;;5093963;28;20059;-83
2021/01/07 03:43:38;;;;;;;25.77;14.27;;;3.50;91.00;;;;;;5095398;28;20028;-83
2021/01/07 03:46:04;;;;;;;26.67;13.93;;;3.50;91.00;;;;;;5093689;28;20028;-82
2021/01/07 03:48:29;;;;;;;22.58;13.13;;;3.40;91.00;;;;;;5093574;28;20031;-83
2021/01/07 03:50:55;;;;;;;27.45;14.73;;;3.50;90.90;;;;;;5093082;28;20080;-81
2021/01/07 03:53:21;;;;;;;34.05;16.23;;;3.40;90.90;;;;;;5092930;28;20027;-82
2021/01/07 03:55:46;;;;;;;27.15;13.13;;;3.30;91.30;;;;;;5092719;28;20052;-83
2021/01/07 03:58:12;;;;;;;25.55;12.15;;;3.30;91.20;;;;;;5092085;28;20055;-83
2021/01/07 04:00:38;;;;;;;26.75;14.07;;;3.30;91.20;;;;;;5094309;28;20028;-82
2021/01/07 04:03:04;;;;;;;29.95;12.98;;;3.30;91.50;;;;;;5092926;28;20062;-82
2021/01/07 04:05:30;;;;;;;33.60;14.40;;;3.30;91.40;;;;;;5092907;28;20020;-82
2021/01/07 04:07:55;;;;;;;28.45;12.00;;;3.30;91.50;;;;;;5092482;28;20023;-83
2021/01/07 04:10:21;;;;;;;25.95;11.02;;;3.30;91.40;;;;;;5092404;28;20028;-83
2021/01/07 04:12:47;;;;;;;27.83;12.57;;;3.30;91.30;;;;;;5092280;28;20028;-83
2021/01/07 04:15:13;;;;;;;46.00;12.50;;;3.40;91.30;;;;;;5088516;28;20079;-83
2021/01/07 04:17:38;;;;;;;83.75;15.13;;;3.30;91.30;;;;;;5089227;28;20032;-82
2021/01/07 04:20:05;;;;;;;34.05;12.23;;;3.30;91.40;;;;;;5089427;28;20462;-83
2021/01/07 04:22:31;;;;;;;85.90;18.08;;;3.30;91.30;;;;;;5089221;28;20035;-82
2021/01/07 04:24:57;;;;;;;72.47;15.35;;;3.10;92.00;;;;;;5072426;28;20032;-83
2021/01/07 04:27:22;;;;;;;45.85;13.27;;;3.10;92.10;;;;;;5089604;28;20466;-83
2021/01/07 04:29:48;;;;;;;58.35;14.25;;;3.10;91.90;;;;;;5089134;28;20394;-82
2021/01/07 04:32:14;;;;;;;34.13;13.32;;;3.10;92.00;;;;;;5073265;28;20466;-83
2021/01/07 04:34:40;;;;;;;34.72;11.80;;;3.10;91.90;;;;;;5089687;28;20021;-83
2021/01/07 04:37:05;;;;;;;48.28;14.95;;;3.10;91.70;;;;;;5093379;28;20412;-83
2021/01/07 04:39:31;;;;;;;35.70;13.57;;;3.10;91.80;;;;;;5092207;28;20024;-83
2021/01/07 04:41:57;;;;;;;76.68;18.98;;;3.20;91.70;;;;;;5092487;28;20024;-82
2021/01/07 04:44:24;;;;;;;35.17;13.73;;;3.10;92.00;;;;;;5092306;28;20024;-83
2021/01/07 04:46:50;;;;;;;35.40;13.80;;;3.10;91.80;;;;;;5092300;28;20051;-83
2021/01/07 04:49:16;;;;;;;30.88;12.20;;;3.20;91.70;;;;;;5092641;28;20024;-83
2021/01/07 04:51:41;;;;;;;38.13;15.20;;;3.20;91.60;;;;;;5092972;28;20119;-81
2021/01/07 04:54:09;;;;;;;46.40;16.60;;;3.20;91.80;;;;;;5092323;28;20033;-83
2021/01/07 04:56:34;;;;;;;40.42;16.20;;;3.20;91.80;;;;;;5074696;28;20061;-82
2021/01/07 04:59:00;;;;;;;34.88;14.05;;;3.20;92.00;;;;;;5072645;28;20082;-83
2021/01/07 05:01:26;;;;;;;46.85;16.67;;;3.20;91.80;;;;;;5072290;28;20035;-83
2021/01/07 05:03:52;;;;;;;31.85;12.85;;;3.20;92.10;;;;;;5072347;28;20432;-83
2021/01/07 05:06:25;;;;;;;34.28;13.40;;;3.30;91.90;;;;;;5072252;28;20028;-83
2021/01/07 05:09:05;;;;;;;42.08;16.05;;;3.30;91.70;;;;;;5071926;28;20020;-83
2021/01/07 05:11:31;;;;;;;40.22;14.65;;;3.30;91.90;;;;;;5072317;28;20021;-83
2021/01/07 05:14:01;;;;;;;51.10;15.90;;;3.30;91.80;;;;;;5073449;28;20024;-83
2021/01/07 05:16:28;;;;;;;35.10;13.80;;;3.30;91.90;;;;;;5073957;28;20043;-83
2021/01/07 05:18:54;;;;;;;34.28;12.68;;;3.30;91.80;;;;;;5073452;28;20025;-83
2021/01/07 05:21:21;;;;;;;53.05;15.52;;;3.30;91.70;;;;;;5073595;28;20384;-83
2021/01/07 05:23:51;;;;;;;38.60;15.45;;;3.30;91.80;;;;;;5072015;28;20111;-82
2021/01/07 05:26:18;;;;;;;46.08;17.63;;;3.30;91.80;;;;;;5072092;28;20028;-83
2021/01/07 05:28:49;;;;;;;42.58;14.15;;;3.30;92.00;;;;;;5077698;28;20390;-83
2021/01/07 05:31:27;;;;;;;58.60;17.95;;;3.30;91.90;;;;;;5092447;28;20381;-82
2021/01/07 05:33:55;;;;;;;35.50;15.05;;;3.20;92.40;;;;;;5092320;28;20024;-83
2021/01/07 05:36:24;;;;;;;42.85;16.85;;;3.30;91.90;;;;;;5092050;28;20054;-82
2021/01/07 05:38:52;;;;;;;52.75;17.63;;;3.30;92.00;;;;;;5092319;28;20103;-83
2021/01/07 05:41:19;;;;;;;47.92;15.75;;;3.20;92.10;;;;;;5092145;28;20074;-82
2021/01/07 05:43:56;;;;;;;43.28;15.85;;;3.20;92.00;;;;;;5093624;28;20077;-83
2021/01/07 05:46:24;;;;;;;42.40;16.00;;;3.30;92.00;;;;;;5093671;28;20050;-82
2021/01/07 05:48:54;;;;;;;50.70;15.90;;;3.30;92.10;;;;;;5083095;28;20052;-83
2021/01/07 05:51:24;;;;;;;50.93;15.97;;;3.20;92.10;;;;;;5071946;28;20031;-83
2021/01/07 05:53:59;;;;;;;46.90;15.93;;;3.30;92.00;;;;;;5071916;28;20025;-83
2021/01/07 05:56:26;;;;;;;61.75;17.38;;;3.30;92.00;;;;;;5072747;28;20494;-83
2021/01/07 05:58:55;;;;;;;66.78;18.27;;;3.20;92.10;;;;;;5071788;28;20021;-83
2021/01/07 06:01:22;;;;;;;63.13;18.55;;;3.20;92.10;;;;;;5071733;28;20024;-83
2021/01/07 06:03:53;;;;;;;113.50;22.60;;;3.20;92.20;;;;;;5073989;28;20055;-82
2021/01/07 06:06:23;;;;;;;73.93;17.55;;;3.20;92.70;;;;;;5073121;28;20024;-83
2021/01/07 06:08:56;;;;;;;64.15;15.48;;;3.10;92.60;;;;;;5071956;28;20485;-83
2021/01/07 06:11:25;;;;;;;104.18;20.77;;;3.10;92.30;;;;;;5071535;28;20389;-83
2021/01/07 06:13:53;;;;;;;90.07;20.50;;;3.10;92.40;;;;;;5071651;28;20039;-83
2021/01/07 06:16:20;;;;;;;81.28;19.45;;;3.20;92.50;;;;;;5072424;28;20016;-83
2021/01/07 06:18:47;;;;;;;71.95;19.85;;;3.20;92.60;;;;;;5073042;28;20024;-83
2021/01/07 06:21:13;;;;;;;90.72;18.73;;;3.20;92.60;;;;;;5075047;28;20104;-83
2021/01/07 06:23:44;;;;;;;117.28;23.25;;;3.20;92.50;;;;;;5074998;28;20486;-83
2021/01/07 06:26:21;;;;;;;71.15;19.17;;;3.20;92.40;;;;;;5075486;28;20115;-83
2021/01/07 06:28:56;;;;;;;74.53;20.17;;;3.20;92.30;;;;;;5095374;28;20576;-83
2021/01/07 06:31:36;;;;;;;107.50;23.40;;;3.20;92.50;;;;;;5095210;28;20046;-82
2021/01/07 06:34:06;;;;;;;99.38;23.13;;;3.20;92.70;;;;;;5095353;28;20067;-83
2021/01/07 06:36:41;;;;;;;86.57;22.40;;;3.20;92.70;;;;;;5095184;28;20026;-83
2021/01/07 06:39:08;;;;;;;75.68;21.48;;;3.20;92.40;;;;;;5096437;28;20020;-83
2021/01/07 06:41:34;;;;;;;88.55;25.85;;;3.30;92.80;;;;;;5095216;28;20024;-82
2021/01/07 06:44:02;;;;;;;76.13;21.42;;;3.30;92.60;;;;;;5094422;28;20481;-83
2021/01/07 06:46:48;;;;;;;85.22;25.52;;;3.30;92.50;;;;;;5094923;28;20041;-82
2021/01/07 06:49:20;;;;;;;213.27;38.85;;;3.40;92.60;;;;;;5094638;28;20050;-82
2021/01/07 06:51:51;;;;;;;79.20;23.42;;;3.40;92.80;;;;;;5089143;28;20519;-82
2021/01/07 06:54:17;;;;;;;;;;;3.40;92.60;;;;;;5074585;28;20070;-82
2021/01/07 06:56:44;;;;;;;124.18;28.05;;;3.40;92.60;;;;;;5074933;28;19920;-82
2021/01/07 06:59:13;;;;;;;106.97;29.58;;;3.40;92.60;;;;;;5074063;28;20025;-82
2021/01/07 07:01:47;;;;;;;94.85;28.83;;;3.40;92.80;;;;;;5073841;28;20111;-83
2021/01/07 07:04:24;;;;;;;194.65;41.30;;;3.50;92.80;;;;;;5075504;28;20749;-82
2021/01/07 07:06:59;;;;;;;116.05;34.13;;;3.50;93.00;;;;;;5075062;28;20028;-82
2021/01/07 07:09:26;;;;;;;112.80;32.55;;;3.50;92.80;;;;;;5086982;28;20024;-83
2021/01/07 07:11:55;;;;;;;88.32;27.48;;;3.60;93.10;;;;;;5094046;28;20020;-83
2021/01/07 07:14:23;;;;;;;145.52;37.20;;;3.60;92.70;;;;;;5094033;28;20056;-83
2021/01/07 07:16:50;;;;;;;95.85;30.75;;;3.60;93.10;;;;;;5095125;28;20047;-82
2021/01/07 07:19:26;;;;;;;149.88;37.17;;;3.60;92.80;;;;;;5095371;28;20024;-83
2021/01/07 07:22:02;;;;;;;123.28;34.17;;;3.60;93.00;;;;;;5094091;28;20020;-82
2021/01/07 07:24:40;;;;;;;98.07;30.65;;;3.60;93.00;;;;;;5093656;28;20020;-82
2021/01/07 07:27:11;;;;;;;82.10;27.88;;;3.60;93.10;;;;;;5092961;28;20024;-82
2021/01/07 07:29:37;;;;;;;;;;;3.70;92.90;;;;;;5077828;28;20067;-82
2021/01/07 07:32:21;;;;;;;91.85;29.33;;;3.60;93.20;;;;;;5073127;28;20351;-82
2021/01/07 07:34:51;;;;;;;184.25;43.08;;;3.70;93.00;;;;;;5074627;28;20060;-82
2021/01/07 07:37:25;;;;;;;74.67;28.30;;;3.70;93.00;;;;;;5074516;28;20553;-82
2021/01/07 07:39:59;;;;;;;78.95;27.13;;;3.80;92.80;;;;;;5073071;28;20020;-82
2021/01/07 07:42:29;;;;;;;95.55;31.42;;;3.80;92.70;;;;;;5073072;28;20024;-83
2021/01/07 07:44:55;;;;;;;105.75;33.90;;;3.80;92.80;;;;;;5072414;28;20032;-83
2021/01/07 07:47:22;;;;;;;151.00;40.15;;;3.80;92.80;;;;;;5072579;28;20445;-82
2021/01/07 07:49:55;;;;;;;102.78;34.47;;;3.90;92.80;;;;;;5074117;28;20099;-83
2021/01/07 07:52:22;;;;;;;113.25;35.80;;;3.90;92.90;;;;;;5072942;28;20398;-83
2021/01/07 07:55:08;;;;;;;80.03;29.27;;;3.90;92.90;;;;;;5073344;28;20035;-83
2021/01/07 07:57:47;;;;;;;110.10;33.15;;;4.00;92.80;;;;;;5079928;28;20494;-83
2021/01/07 08:00:17;;;;;;;83.82;28.58;;;4.00;92.80;;;;;;5094205;28;20027;-83
2021/01/07 08:02:44;;;;;;;119.10;34.08;;;4.00;92.70;;;;;;5094394;28;20021;-83
2021/01/07 08:05:24;;;;;;;108.45;32.95;;;4.10;92.90;;;;;;5093032;28;20052;-83
2021/01/07 08:07:54;;;;;;;69.73;26.70;;;4.10;92.90;;;;;;5092151;28;20035;-83
2021/01/07 08:10:20;;;;;;;63.20;24.10;;;4.20;92.80;;;;;;5092876;28;20276;-83
2021/01/07 08:12:46;;;;;;;81.10;30.20;;;4.30;92.70;;;;;;5092749;28;20385;-83
2021/01/07 08:15:12;;;;;;;87.55;32.42;;;4.30;92.90;;;;;;5092605;28;20024;-83
2021/01/07 08:17:38;;;;;;;70.60;26.27;;;4.30;93.00;;;;;;5093838;28;20028;-84
2021/01/07 08:20:05;;;;;;;92.13;31.55;;;4.30;92.90;;;;;;5092814;28;20031;-83
2021/01/07 08:22:31;;;;;;;84.50;30.45;;;4.30;93.10;;;;;;5092584;28;20024;-83
2021/01/07 08:24:57;;;;;;;108.40;36.67;;;4.40;93.00;;;;;;5091991;28;20389;-83
2021/01/07 08:27:28;;;;;;;96.05;31.58;;;4.40;93.20;;;;;;5074731;28;20386;-83
2021/01/07 08:29:56;;;;;;;107.07;33.30;;;4.50;93.10;;;;;;5089658;28;20026;-84
2021/01/07 08:32:30;;;;;;;85.57;30.67;;;4.50;93.20;;;;;;5072736;28;20082;-84
2021/01/07 08:34:58;;;;;;;83.07;28.92;;;4.50;93.00;;;;;;5072963;28;20035;-84
2021/01/07 08:37:33;;;;;;;80.68;29.30;;;4.60;92.90;;;;;;5073029;28;20031;-89
2021/01/07 08:40:06;;;;;;;91.40;31.42;;;4.60;92.90;;;;;;5073925;28;20017;-82
2021/01/07 08:42:36;;;;;;;93.53;31.65;;;4.60;93.00;;;;;;5082525;28;20035;-88
2021/01/07 08:45:04;;;;;;;79.63;28.13;;;4.60;92.90;;;;;;5093064;28;20020;-87
2021/01/07 08:47:30;;;;;;;96.70;32.97;;;4.70;92.80;;;;;;5092831;28;20032;-87
2021/01/07 08:50:19;;;;;;;75.13;27.70;;;4.80;92.90;;;;;;5085637;28;20382;-87
2021/01/07 08:52:56;;;;;;;86.05;31.70;;;4.80;92.90;;;;;;5073657;28;20028;-88
2021/01/07 08:55:44;;;;;;;71.32;28.35;;;4.80;92.70;;;;;;5072499;28;20055;-88
2021/01/07 08:58:10;;;;;;;65.97;26.23;;;4.90;92.60;;;;;;5073650;28;20031;-88
2021/01/07 09:00:36;;;;;;;75.32;29.75;;;4.90;92.50;;;;;;5072475;28;20101;-88
2021/01/07 09:03:02;;;;;;;69.47;27.88;;;4.90;92.30;;;;;;5072643;28;20425;-88
2021/01/07 09:05:29;;;;;;;69.43;26.63;;;4.90;92.40;;;;;;5080283;28;20030;-88
2021/01/07 09:08:12;;;;;;;64.68;26.13;;;4.90;92.10;;;;;;5092984;28;20028;-90
2021/01/07 09:10:39;;;;;;;72.20;28.02;;;4.90;91.90;;;;;;5092814;28;20032;-90
2021/01/07 09:13:19;;;;;;;66.68;23.92;;;4.80;91.80;;;;;;5095407;28;20043;-90
2021/01/07 09:15:45;;;;;;;99.25;26.65;;;4.80;91.80;;;;;;5096337;28;20123;-89
2021/01/07 09:18:11;;;;;;;62.03;23.15;;;4.80;91.80;;;;;;5091960;28;20077;-90
2021/01/07 09:20:37;;;;;;;102.00;28.58;;;4.80;91.70;;;;;;5093838;28;20024;-90
2021/01/07 09:23:08;;;;;;;66.13;23.52;;;4.60;91.70;;;;;;5092887;28;20027;-90
2021/01/07 09:25:35;;;;;;;61.90;24.10;;;4.60;91.90;;;;;;5087804;28;20029;-91
2021/01/07 09:28:05;;;;;;;127.55;35.25;;;4.50;91.90;;;;;;5072873;28;20035;-91
2021/01/07 09:30:32;;;;;;;95.97;31.33;;;4.50;91.90;;;;;;5073601;28;20024;-92
2021/01/07 09:32:58;;;;;;;57.67;21.67;;;4.30;92.20;;;;;;5072446;28;20033;-93
2021/01/07 09:35:26;;;;;;;71.85;23.45;;;4.40;92.00;;;;;;5075141;28;20028;-91
2021/01/07 09:37:52;;;;;;;58.55;24.95;;;4.40;91.90;;;;;;5092739;28;20119;-92
2021/01/07 09:40:19;;;;;;;52.90;21.58;;;4.30;92.00;;;;;;5093756;28;20055;-93
2021/01/07 09:42:44;;;;;;;87.50;26.73;;;4.40;91.90;;;;;;5083469;28;20036;-93
2021/01/07 09:45:11;;;;;;;54.20;22.80;;;4.40;91.80;;;;;;5072777;28;20365;-92
2021/01/07 09:47:38;;;;;;;44.05;18.92;;;4.30;92.00;;;;;;5072450;28;20025;-92
2021/01/07 09:50:08;;;;;;;47.03;18.83;;;4.30;91.90;;;;;;5072847;28;20474;-94
2021/01/07 09:52:34;;;;;;;48.88;19.77;;;4.30;91.80;;;;;;5084939;28;20032;-93
2021/01/07 09:55:01;;;;;;;53.88;20.48;;;4.20;91.90;;;;;;5092042;28;20021;-94
2021/01/07 09:57:27;;;;;;;41.83;17.38;;;4.20;91.90;;;;;;5097817;28;20044;-93
2021/01/07 09:59:53;;;;;;;33.17;16.42;;;4.20;92.00;;;;;;5096460;28;20424;-95
2021/01/07 10:02:18;;;;;;;42.05;17.13;;;4.20;92.10;;;;;;5095815;28;20470;-94
2021/01/07 10:04:44;;;;;;;29.52;14.05;;;4.20;92.10;;;;;;5088320;28;20028;-95
2021/01/07 10:07:11;;;;;;;35.15;17.10;;;4.30;92.00;;;;;;5096876;28;20030;-94
2021/01/07 10:09:38;;;;;;;31.38;15.15;;;4.30;92.00;;;;;;5097913;28;20023;-94
2021/01/07 10:12:04;;;;;;;28.92;15.35;;;4.30;92.00;;;;;;5096647;28;20020;-94
2021/01/07 10:14:31;;;;;;;32.80;17.13;;;4.40;92.00;;;;;;5096495;28;20028;-94
2021/01/07 10:17:03;;;;;;;31.05;16.85;;;4.40;92.00;;;;;;5096428;28;20055;-94
2021/01/07 10:19:31;;;;;;;35.65;18.48;;;4.40;92.00;;;;;;5097361;28;20023;-94
2021/01/07 10:22:06;;;;;;;30.98;16.98;;;4.40;92.00;;;;;;5096442;28;20033;-95
2021/01/07 10:24:38;;;;;;;29.40;17.42;;;4.40;92.00;;;;;;5096272;28;20035;-95
2021/01/07 10:27:05;;;;;;;74.32;35.03;;;4.40;92.10;;;;;;5096503;28;20031;-94
2021/01/07 10:29:35;;;;;;;42.65;24.13;;;4.40;92.20;;;;;;5096830;28;20102;-95
2021/01/07 10:32:07;;;;;;;33.83;18.40;;;4.50;92.30;;;;;;5096116;28;20020;-95
2021/01/07 10:34:35;;;;;;;31.50;17.80;;;4.60;92.20;;;;;;5096116;28;20028;-96
2021/01/07 10:37:03;;;;;;;43.35;19.70;;;4.60;92.30;;;;;;5096140;28;20478;-95
2021/01/07 10:39:34;;;;;;;27.95;13.98;;;4.60;92.10;;;;;;5096115;28;20028;-96
2021/01/07 10:42:00;;;;;;;41.55;21.63;;;4.70;92.00;;;;;;5095958;28;20028;-96
2021/01/07 10:44:32;;;;;;;32.42;18.02;;;4.60;92.10;;;;;;5096157;28;20027;-95
2021/01/07 10:47:00;;;;;;;80.07;43.05;;;4.70;92.00;;;;;;5096070;28;20130;-96
2021/01/07 10:49:30;;;;;;;37.28;20.48;;;4.70;91.90;;;;;;5097298;28;20524;-95
2021/01/07 10:51:59;;;;;;;38.10;24.42;;;4.70;91.90;;;;;;5095887;28;20039;-95
2021/01/07 10:54:50;;;;;;;29.85;17.50;;;4.80;91.90;;;;;;5095513;28;20028;-95
2021/01/07 10:57:29;;;;;;;;;;;4.80;91.80;;;;;;5095800;28;20044;-96
2021/01/07 11:00:13;;;;;;;34.38;19.77;;;4.70;91.80;;;;;;5095547;28;19904;-94
2021/01/07 11:03:06;;;;;;;24.80;15.85;;;4.60;91.90;;;;;;5098734;28;20023;-95
2021/01/07 11:05:41;;;;;;;26.23;16.23;;;4.70;92.00;;;;;;5099030;28;20035;-93
2021/01/07 11:08:18;;;;;;;33.40;21.17;;;4.70;92.00;;;;;;5094589;28;20482;-93
2021/01/07 11:10:53;;;;;;;29.23;19.20;;;4.70;92.00;;;;;;5095102;28;20020;-94
2021/01/07 11:13:29;;;;;;;28.60;15.60;;;4.70;91.90;;;;;;5095327;28;20024;-93
2021/01/07 11:15:56;;;;;;;22.90;14.82;;;4.70;92.00;;;;;;5095675;28;20163;-93
2021/01/07 11:18:40;;;;;;;25.83;18.15;;;4.70;92.00;;;;;;5094071;28;20031;-92
2021/01/07 11:21:13;;;;;;;27.73;21.77;;;4.70;91.90;;;;;;5094353;28;20221;-92
2021/01/07 11:23:39;;;;;;;28.27;17.27;;;4.70;92.00;;;;;;5080716;28;20052;-91
2021/01/07 11:26:08;;;;;;;28.58;17.52;;;4.70;92.00;;;;;;5081833;28;20020;-92
2021/01/07 11:28:35;;;;;;;64.93;41.25;;;4.70;91.90;;;;;;5094642;28;20111;-92
2021/01/07 11:31:02;;;;;;;28.75;20.63;;;4.60;92.10;;;;;;5094519;28;20481;-91
2021/01/07 11:33:33;;;;;;;24.38;17.48;;;4.60;92.00;;;;;;5092368;28;20105;-92
2021/01/07 11:36:03;;;;;;;63.78;38.08;;;4.60;92.10;;;;;;5076948;28;20021;-91
2021/01/07 11:38:32;;;;;;;56.67;35.42;;;4.60;92.10;;;;;;5073543;28;20773;-91
2021/01/07 11:41:03;;;;;;;32.65;23.27;;;4.60;92.10;;;;;;5073673;28;20051;-90
2021/01/07 11:43:59;;;;;;;30.38;23.00;;;4.60;92.10;;;;;;5074017;28;20020;-90
2021/01/07 11:46:29;;;;;;;30.60;19.67;;;4.60;92.10;;;;;;5073895;28;20024;-89
2021/01/07 11:49:04;;;;;;;50.97;33.90;;;4.60;92.20;;;;;;5074876;28;20530;-90
2021/01/07 11:51:30;;;;;;;91.60;60.40;;;4.60;92.30;;;;;;5083519;28;20029;-91
2021/01/07 11:54:04;;;;;;;49.70;35.22;;;4.60;92.30;;;;;;5073644;28;20020;-91
2021/01/07 11:56:32;;;;;;;44.38;30.90;;;4.60;92.20;;;;;;5080742;28;20059;-90
2021/01/07 11:59:01;;;;;;;67.90;47.55;;;4.50;92.30;;;;;;5093517;28;20024;-91
2021/01/07 12:01:37;;;;;;;27.50;18.10;;;4.50;92.30;;;;;;5093473;28;20162;-91
2021/01/07 12:04:13;;;;;;;26.33;17.40;;;4.50;92.20;;;;;;5093350;28;20024;-91
2021/01/07 12:07:02;;;;;;;48.53;31.05;;;4.60;92.20;;;;;;5091780;28;20055;-91
2021/01/07 12:09:35;;;;;;;39.50;25.02;;;4.60;92.40;;;;;;5091190;28;20020;-90
2021/01/07 12:12:10;;;;;;;37.83;24.75;;;4.60;92.30;;;;;;5074946;28;20032;-91
2021/01/07 12:14:44;;;;;;;118.85;62.30;;;4.60;92.20;;;;;;5074896;28;20048;-92
2021/01/07 12:17:12;;;;;;;83.00;55.25;;;4.60;92.40;;;;;;5073065;28;20024;-90
2021/01/07 12:19:41;;;;;;;39.22;27.02;;;4.60;92.30;;;;;;5092333;28;20027;-91
2021/01/07 12:22:08;;;;;;;29.17;18.08;;;4.60;92.60;;;;;;5086552;28;20115;-90
2021/01/07 12:24:34;;;;;;;24.65;17.15;;;4.60;92.70;;;;;;5077765;28;20028;-93
2021/01/07 12:27:02;;;;;;;39.22;20.17;;;4.60;92.60;;;;;;5073746;28;20027;-92
2021/01/07 12:29:29;;;;;;;21.42;14.13;;;4.60;92.70;;;;;;5073609;28;20025;-87
2021/01/07 12:31:57;;;;;;;39.63;25.33;;;4.70;92.50;;;;;;5087808;28;20123;-88
2021/01/07 12:35:00;;;;;;;23.92;15.75;;;4.70;92.50;;;;;;5080197;28;20031;-88
2021/01/07 12:37:29;;;;;;;44.42;29.42;;;4.70;92.50;;;;;;5087086;28;20032;-88
2021/01/07 12:40:05;;;;;;;35.78;23.35;;;4.60;93.10;;;;;;5077283;28;20023;-89
2021/01/07 12:42:54;;;;;;;29.85;18.70;;;4.60;93.00;;;;;;5072674;28;20016;-87
2021/01/07 12:45:20;;;;;;;23.67;16.45;;;4.70;92.90;;;;;;5074077;28;20028;-86
2021/01/07 12:47:46;;;;;;;42.53;29.60;;;4.70;92.80;;;;;;5072819;28;20036;-87